Time;durP1;ratioP1;P1;durP2;ratioP2;P2;SDS_P1;SDS_P2;PMS_P1;PMS_P2;Temp;Humidity;BMP_temperature;BMP_pressure;BME280_temperature;BME280_humidity;BME280_pressure;Samples;Min_cycle;Max_cycle;Signal;HPM_P1;HPM_P2
2021/12/02 00:01:26;;;;;;;11.60;7.90;;;;;;;3.95;60.24;99877.28;117349;1185;21916;-50
2021/12/02 00:03:55;;;;;;;12.10;8.60;;;;;;;3.99;60.37;99877.80;117337;1179;22688;-52
2021/12/02 00:06:23;;;;;;;11.00;7.30;;;;;;;4.00;60.45;99876.08;117353;1185;23445;-66
2021/12/02 00:08:53;;;;;;;12.00;8.60;;;;;;;4.02;60.36;99867.59;117401;1185;22877;-51
2021/12/02 00:11:21;;;;;;;13.20;7.60;;;;;;;4.02;60.51;99863.24;117444;1182;23577;-66
2021/12/02 00:16:28;;;;;;;12.70;8.90;;;;;;;4.04;60.17;99855.44;117337;1182;23445;-50
2021/12/02 00:21:46;;;;;;;13.10;9.00;;;;;;;4.04;60.09;99853.37;117477;1185;21947;-66
2021/12/02 00:24:18;;;;;;;14.40;8.60;;;;;;;4.01;59.97;99852.30;117468;1182;23640;-53
2021/12/02 00:26:47;;;;;;;14.20;9.40;;;;;;;3.98;60.10;99850.55;117356;1182;24146;-66
2021/12/02 00:29:18;;;;;;;12.60;8.60;;;;;;;3.96;60.39;99850.02;117482;1185;21897;-50
2021/12/02 00:31:47;;;;;;;13.20;8.80;;;;;;;3.94;60.11;99857.30;117380;1185;23106;-50
2021/12/02 00:34:22;;;;;;;11.90;7.20;;;;;;;3.93;60.20;99853.98;117314;1183;21867;-66
2021/12/02 00:36:50;;;;;;;13.30;7.80;;;;;;;3.92;60.17;99856.07;117384;1176;21860;-65
2021/12/02 00:39:19;;;;;;;13.60;8.00;;;;;;;3.91;60.19;99850.69;117360;1185;21940;-65
2021/12/02 00:41:48;;;;;;;12.80;8.40;;;;;;;3.91;60.10;99848.77;117319;1182;21864;-66
2021/12/02 00:44:18;;;;;;;13.00;8.80;;;;;;;3.90;60.06;99842.17;117289;1186;22924;-66
2021/12/02 00:46:47;;;;;;;10.90;7.70;;;;;;;3.88;60.17;99835.91;117298;1186;21855;-66
2021/12/02 00:49:17;;;;;;;12.90;8.80;;;;;;;3.85;60.03;99829.13;117383;1185;21839;-50
2021/12/02 00:51:53;;;;;;;14.00;9.50;;;;;;;3.82;60.05;99818.86;117365;1184;21854;-65
2021/12/02 00:54:23;;;;;;;14.70;8.60;;;;;;;3.79;59.98;99823.34;117390;1182;23456;-51
2021/12/02 00:56:52;;;;;;;15.90;9.50;;;;;;;3.78;60.10;99825.61;117356;1185;21885;-66
2021/12/02 00:59:21;;;;;;;17.60;10.40;;;;;;;3.77;59.81;99826.63;117426;1182;23471;-66
2021/12/02 01:02:03;;;;;;;14.60;10.00;;;;;;;3.73;59.90;99825.92;117271;1182;23441;-50
2021/12/02 01:04:33;;;;;;;16.20;10.30;;;;;;;3.68;60.11;99822.41;117341;1183;23095;-51
2021/12/02 01:07:02;;;;;;;15.20;11.20;;;;;;;3.65;60.11;99819.45;117229;1182;23476;-51
2021/12/02 01:09:31;;;;;;;18.00;10.50;;;;;;;3.62;60.09;99814.40;117344;1185;22828;-50
2021/12/02 01:12:00;;;;;;;13.40;10.10;;;;;;;3.59;60.00;99816.27;117284;1178;21859;-65
2021/12/02 01:14:28;;;;;;;14.60;9.60;;;;;;;3.55;60.03;99804.27;117329;1185;21964;-50
2021/12/02 01:16:56;;;;;;;15.00;9.60;;;;;;;3.53;59.93;99800.98;117219;1184;23560;-50
2021/12/02 01:19:25;;;;;;;15.10;9.00;;;;;;;3.49;59.97;99803.90;117285;1182;23587;-66
2021/12/02 01:21:59;;;;;;;15.10;10.20;;;;;;;3.46;59.97;99809.77;117329;1182;22720;-66
2021/12/02 01:24:27;;;;;;;13.80;9.00;;;;;;;3.45;60.05;99812.55;117290;1182;21853;-50
2021/12/02 01:26:55;;;;;;;14.50;9.00;;;;;;;3.43;59.98;99812.00;117330;1185;21945;-50
2021/12/02 01:29:25;;;;;;;13.60;9.20;;;;;;;3.42;60.12;99814.08;117240;1182;21843;-50
2021/12/02 01:31:56;;;;;;;12.30;8.30;;;;;;;3.45;60.06;99809.23;117293;1185;23475;-50
2021/12/02 01:34:26;;;;;;;12.20;7.70;;;;;;;3.48;60.04;99809.80;117277;1185;21857;-49
2021/12/02 01:36:55;;;;;;;11.10;7.50;;;;;;;3.54;60.20;99809.46;117329;1184;22644;-50
2021/12/02 01:39:23;;;;;;;12.30;8.00;;;;;;;3.58;60.09;99807.59;117342;1184;21894;-51
2021/12/02 01:41:55;;;;;;;10.90;7.80;;;;;;;3.61;60.17;99803.63;117290;1182;21873;-66
2021/12/02 01:44:24;;;;;;;14.40;7.80;;;;;;;3.64;60.02;99802.95;117329;1183;22935;-50
2021/12/02 01:46:54;;;;;;;11.90;7.50;;;;;;;3.64;60.14;99803.30;117405;1182;21874;-50
2021/12/02 01:49:26;;;;;;;11.80;6.80;;;;;;;3.63;59.99;99799.83;117299;1185;22732;-50
2021/12/02 01:51:55;;;;;;;11.00;7.70;;;;;;;3.63;60.09;99796.35;117285;1185;21854;-49
2021/12/02 01:54:25;;;;;;;11.90;7.60;;;;;;;3.62;60.04;99786.63;117269;1182;21857;-50
2021/12/02 01:57:07;;;;;;;11.60;7.80;;;;;;;3.61;60.00;99782.11;117323;1182;24191;-66
2021/12/02 01:59:37;;;;;;;10.50;7.40;;;;;;;3.61;60.02;99782.45;117359;1185;22000;-65
2021/12/02 02:02:09;;;;;;;10.70;7.30;;;;;;;3.62;60.03;99790.10;117260;1176;23522;-65
2021/12/02 02:04:38;;;;;;;12.20;7.40;;;;;;;3.61;59.95;99785.06;117332;1185;23445;-51
2021/12/02 02:07:13;;;;;;;10.80;7.50;;;;;;;3.61;60.06;99776.21;117464;1182;22484;-51
2021/12/02 02:09:42;;;;;;;11.00;7.30;;;;;;;3.61;59.98;99772.91;117370;1182;21895;-66
2021/12/02 02:12:11;;;;;;;9.30;6.70;;;;;;;3.62;60.05;99770.15;117342;1185;22525;-51
2021/12/02 02:14:40;;;;;;;13.30;7.10;;;;;;;3.61;60.19;99769.96;117484;1176;23448;-60
2021/12/02 02:17:24;;;;;;;10.80;7.10;;;;;;;3.64;60.08;99765.99;117398;1185;21853;-66
2021/12/02 02:19:53;;;;;;;10.70;6.60;;;;;;;3.67;60.04;99768.11;117365;1182;21861;-66
2021/12/02 02:22:23;;;;;;;12.20;7.10;;;;;;;3.72;60.11;99767.61;117373;1185;21854;-66
2021/12/02 02:24:52;;;;;;;9.50;5.60;;;;;;;3.77;60.04;99762.42;117451;1184;23471;-50
2021/12/02 02:27:21;;;;;;;10.20;6.30;;;;;;;3.83;60.15;99762.45;117295;1182;23448;-59
2021/12/02 02:29:50;;;;;;;9.50;6.70;;;;;;;3.88;59.92;99762.67;117354;1186;21854;-51
2021/12/02 02:32:25;;;;;;;9.30;5.90;;;;;;;3.93;60.02;99758.35;117444;1185;24177;-66
2021/12/02 02:34:53;;;;;;;10.40;6.00;;;;;;;3.94;60.19;99754.36;117334;1180;24230;-50
2021/12/02 02:37:21;;;;;;;9.70;6.20;;;;;;;3.96;59.99;99754.54;117351;1182;23442;-67
2021/12/02 02:39:50;;;;;;;9.50;6.00;;;;;;;3.97;59.95;99756.64;117400;1183;23580;-67
2021/12/02 02:42:23;;;;;;;10.20;6.30;;;;;;;3.97;59.87;99756.46;117352;1180;21855;-50
2021/12/02 02:44:51;;;;;;;9.00;6.20;;;;;;;3.98;59.86;99762.71;117395;1185;21855;-66
2021/12/02 02:47:24;;;;;;;9.70;6.20;;;;;;;4.00;59.87;99760.12;117337;1182;23571;-50
2021/12/02 02:49:52;;;;;;;8.30;5.90;;;;;;;4.02;60.12;99750.56;117354;1182;22648;-49
2021/12/02 02:52:21;;;;;;;10.70;6.90;;;;;;;4.03;60.09;99750.40;117303;1183;23553;-51
2021/12/02 02:54:50;;;;;;;11.70;7.80;;;;;;;4.04;60.00;99748.48;117411;1182;22002;-66
2021/12/02 02:57:20;;;;;;;10.70;7.70;;;;;;;4.04;59.83;99754.05;117333;1185;21862;-66
2021/12/02 03:00:06;;;;;;;11.30;6.80;;;;;;;4.03;60.06;99756.14;117308;1185;23498;-51
2021/12/02 03:07:45;;;;;;;14.60;8.20;;;;;;;4.06;59.98;99751.98;117351;1185;23462;-50
2021/12/02 03:10:28;;;;;;;12.10;7.20;;;;;;;4.06;60.00;99758.23;117315;1186;21999;-67
2021/12/02 03:13:14;;;;;;;10.10;6.70;;;;;;;4.06;59.95;99752.50;117381;1185;21957;-67
2021/12/02 03:18:30;;;;;;;10.80;7.00;;;;;;;4.07;60.07;99757.19;117165;1182;23648;-50
2021/12/02 03:20:58;;;;;;;10.10;6.90;;;;;;;4.07;60.16;99748.33;117323;1185;21864;-51
2021/12/02 03:23:26;;;;;;;11.40;6.90;;;;;;;4.06;60.34;99748.67;117438;1182;21851;-51
2021/12/02 03:25:55;;;;;;;11.40;7.20;;;;;;;4.09;60.17;99744.17;117392;1185;21862;-67
2021/12/02 03:28:23;;;;;;;9.50;6.90;;;;;;;4.12;60.17;99743.15;117390;1184;21854;-67
2021/12/02 03:30:51;;;;;;;9.30;6.60;;;;;;;4.13;60.20;99742.98;117321;1183;22869;-67
2021/12/02 03:33:20;;;;;;;8.80;5.30;;;;;;;4.15;59.95;99754.10;117416;1185;23474;-51
2021/12/02 03:35:49;;;;;;;11.30;6.80;;;;;;;4.18;60.05;99758.28;117396;1186;22173;-51
2021/12/02 03:38:29;;;;;;;10.10;6.50;;;;;;;4.25;60.09;99751.70;117352;1185;21854;-50
2021/12/02 03:40:57;;;;;;;9.10;6.30;;;;;;;4.31;60.13;99749.64;117345;1185;21900;-50
2021/12/02 03:43:27;;;;;;;9.00;5.60;;;;;;;4.40;60.21;99743.59;117351;1184;21820;-67
2021/12/02 03:45:57;;;;;;;9.10;6.40;;;;;;;4.48;60.09;99741.16;117477;1183;21833;-67
2021/12/02 03:48:25;;;;;;;7.60;5.60;;;;;;;4.55;60.29;99737.71;117350;1185;21854;-51
2021/12/02 03:50:54;;;;;;;9.60;6.90;;;;;;;4.63;60.16;99741.55;117334;1185;23454;-67
2021/12/02 03:53:22;;;;;;;10.50;6.40;;;;;;;4.69;60.41;99743.30;117276;1185;21856;-67
2021/12/02 03:55:50;;;;;;;9.70;6.80;;;;;;;4.77;60.53;99729.23;117258;1185;21857;-58
2021/12/02 03:58:19;;;;;;;8.30;6.10;;;;;;;4.83;60.34;99734.98;117344;1180;23475;-53
2021/12/02 04:00:48;;;;;;;10.30;6.40;;;;;;;4.85;60.37;99736.54;117344;1182;21860;-50
2021/12/02 04:03:16;;;;;;;9.50;6.50;;;;;;;4.86;60.28;99734.45;117341;1179;23621;-50
2021/12/02 04:05:45;;;;;;;8.80;5.80;;;;;;;4.88;60.60;99735.31;117315;1184;21865;-67
2021/12/02 04:08:14;;;;;;;11.20;6.50;;;;;;;4.91;60.50;99727.15;117335;1182;22944;-66
2021/12/02 04:10:43;;;;;;;8.80;6.10;;;;;;;4.95;60.61;99726.29;117119;1185;23461;-50
2021/12/02 04:15:40;;;;;;;9.10;5.90;;;;;;;5.10;60.36;99725.93;117397;1182;23548;-49
2021/12/02 04:18:09;;;;;;;9.20;6.40;;;;;;;5.18;60.69;99718.63;117467;1183;22921;-50
2021/12/02 04:20:37;;;;;;;9.20;6.20;;;;;;;5.25;60.56;99722.09;117405;1185;22617;-65
2021/12/02 04:23:06;;;;;;;8.80;6.10;;;;;;;5.31;60.51;99724.00;117476;1182;22407;-65
2021/12/02 04:25:34;;;;;;;8.60;6.40;;;;;;;5.38;60.71;99715.98;117487;1182;23625;-50
2021/12/02 04:28:02;;;;;;;8.00;5.70;;;;;;;5.45;60.57;99708.67;117378;1176;21854;-50
2021/12/02 04:30:31;;;;;;;9.60;6.20;;;;;;;5.52;60.32;99713.00;117321;1182;23461;-51
2021/12/02 04:32:59;;;;;;;8.10;6.10;;;;;;;5.58;60.61;99716.81;117472;1179;24149;-65
2021/12/02 04:35:28;;;;;;;11.20;6.00;;;;;;;5.64;60.54;99715.92;117363;1184;22147;-65
2021/12/02 04:37:56;;;;;;;8.10;6.00;;;;;;;5.68;60.43;99715.58;117338;1180;22927;-65
2021/12/02 04:40:24;;;;;;;8.70;5.80;;;;;;;5.70;60.50;99723.77;117451;1182;21909;-50
2021/12/02 04:42:54;;;;;;;9.10;5.80;;;;;;;5.70;60.54;99726.02;117453;1183;23638;-65
2021/12/02 04:45:23;;;;;;;10.00;5.80;;;;;;;5.69;60.63;99731.59;117377;1183;23448;-65
2021/12/02 04:47:51;;;;;;;8.20;5.40;;;;;;;5.67;60.54;99730.55;117335;1177;23451;-50
2021/12/02 04:50:20;;;;;;;8.60;5.90;;;;;;;5.65;60.37;99734.91;117325;1182;23558;-51
2021/12/02 04:52:49;;;;;;;8.00;5.20;;;;;;;5.63;60.43;99739.96;117343;1186;21989;-49
2021/12/02 04:55:18;;;;;;;10.60;6.20;;;;;;;5.64;60.27;99731.25;117247;1182;23558;-65
2021/12/02 04:57:47;;;;;;;8.60;5.40;;;;;;;5.65;60.38;99730.38;117070;1185;23474;-65
2021/12/02 05:00:16;;;;;;;8.10;5.30;;;;;;;5.66;60.44;99729.52;117351;1182;21851;-50
2021/12/02 05:02:45;;;;;;;8.60;6.00;;;;;;;5.66;60.49;99727.25;117358;1186;22873;-50
2021/12/02 05:05:14;;;;;;;8.00;5.60;;;;;;;5.67;60.49;99723.24;117338;1185;21958;-50
2021/12/02 05:07:43;;;;;;;8.90;5.40;;;;;;;5.69;60.59;99719.41;117307;1185;21915;-65
2021/12/02 05:10:11;;;;;;;7.30;5.00;;;;;;;5.70;60.22;99733.67;117442;1185;23457;-50
2021/12/02 05:12:40;;;;;;;8.40;4.90;;;;;;;5.73;60.42;99736.63;117112;1185;21861;-50
2021/12/02 05:15:09;;;;;;;8.10;4.90;;;;;;;5.75;60.61;99744.45;117339;1179;22629;-65
2021/12/02 05:17:38;;;;;;;6.80;5.10;;;;;;;5.77;60.37;99736.95;117482;1182;24162;-51
2021/12/02 05:20:07;;;;;;;8.20;5.40;;;;;;;5.80;60.46;99734.69;117349;1179;23696;-65
2021/12/02 05:22:40;;;;;;;7.30;4.90;;;;;;;5.85;60.36;99734.15;117267;1182;23722;-65
2021/12/02 05:25:09;;;;;;;9.40;5.60;;;;;;;5.86;60.40;99737.80;117290;1185;21852;-64
2021/12/02 05:27:39;;;;;;;7.20;4.60;;;;;;;5.86;60.26;99737.29;117323;1185;21860;-65
2021/12/02 05:30:08;;;;;;;7.50;5.50;;;;;;;5.85;60.42;99728.23;117378;1185;24149;-50
2021/12/02 05:32:36;;;;;;;7.10;4.70;;;;;;;5.87;60.28;99722.66;117447;1185;23618;-65
2021/12/02 05:35:06;;;;;;;12.20;5.30;;;;;;;5.87;60.34;99720.04;119227;1183;23632;-66
2021/12/02 05:37:35;;;;;;;7.80;4.90;;;;;;;5.84;60.31;99716.56;117284;1185;21966;-65
2021/12/02 05:40:04;;;;;;;7.80;4.90;;;;;;;5.83;60.10;99724.75;117445;1183;23695;-51
2021/12/02 05:42:32;;;;;;;10.70;5.20;;;;;;;5.79;60.22;99737.65;117412;1183;21918;-64
2021/12/02 05:45:01;;;;;;;6.70;4.70;;;;;;;5.78;60.32;99741.48;117437;1182;23484;-64
2021/12/02 05:47:30;;;;;;;8.60;4.90;;;;;;;5.76;60.47;99738.70;117347;1176;23645;-50
2021/12/02 05:49:59;;;;;;;6.50;4.50;;;;;;;5.75;60.23;99734.17;117301;1185;24285;-51
2021/12/02 05:52:27;;;;;;;6.70;4.80;;;;;;;5.75;60.37;99739.05;117331;1185;22642;-51
2021/12/02 05:54:56;;;;;;;7.60;4.90;;;;;;;5.76;60.37;99738.88;117375;1182;23550;-51
2021/12/02 05:57:24;;;;;;;7.30;5.10;;;;;;;5.77;60.34;99736.25;117493;1185;23573;-64
2021/12/02 05:59:52;;;;;;;9.50;5.40;;;;;;;5.80;60.40;99740.25;117468;1182;21866;-51
2021/12/02 06:02:21;;;;;;;8.70;5.50;;;;;;;5.81;60.52;99741.83;117262;1182;22936;-65
2021/12/02 06:04:52;;;;;;;7.00;4.70;;;;;;;5.80;60.56;99740.78;117306;1185;22094;-64
2021/12/02 06:07:20;;;;;;;7.60;4.80;;;;;;;5.81;60.56;99747.21;117371;1182;24169;-66
2021/12/02 06:09:52;;;;;;;6.30;4.30;;;;;;;5.87;60.89;99746.16;117309;1185;21903;-65
2021/12/02 06:12:21;;;;;;;7.10;5.10;;;;;;;5.93;60.71;99746.83;117307;1185;21983;-52
2021/12/02 06:14:49;;;;;;;10.70;4.90;;;;;;;5.99;60.73;99739.69;117312;1183;24177;-64
2021/12/02 06:17:18;;;;;;;7.10;4.70;;;;;;;6.05;60.69;99741.42;117445;1182;24172;-52
2021/12/02 06:19:46;;;;;;;6.40;4.40;;;;;;;6.09;60.59;99740.89;117375;1186;23489;-54
2021/12/02 06:22:14;;;;;;;7.80;4.80;;;;;;;6.13;60.74;99746.62;117257;1182;23553;-65
2021/12/02 06:24:54;;;;;;;6.60;4.80;;;;;;;6.14;60.58;99750.10;117309;1182;21898;-52
2021/12/02 06:27:23;;;;;;;8.10;5.10;;;;;;;6.14;60.83;99749.05;117356;1183;22942;-53
2021/12/02 06:29:51;;;;;;;8.30;4.60;;;;;;;6.14;60.52;99745.73;117351;1182;22737;-65
2021/12/02 06:32:20;;;;;;;7.20;4.40;;;;;;;6.13;60.36;99740.70;117303;1176;23494;-65
2021/12/02 06:34:50;;;;;;;5.50;3.50;;;;;;;6.14;60.79;99734.26;117354;1185;22861;-55
2021/12/02 06:37:18;;;;;;;10.40;4.70;;;;;;;6.17;60.63;99730.05;117316;1185;22969;-53
2021/12/02 06:39:47;;;;;;;6.00;4.40;;;;;;;6.23;60.74;99730.54;117278;1185;22931;-65
2021/12/02 06:42:15;;;;;;;14.60;8.40;;;;;;;6.29;60.87;99733.65;117315;1186;21886;-51
2021/12/02 06:44:43;;;;;;;7.60;5.30;;;;;;;6.37;60.77;99728.20;117458;1182;23576;-67
2021/12/02 06:47:12;;;;;;;7.10;4.80;;;;;;;6.46;61.03;99722.40;117336;1182;21980;-53
2021/12/02 06:49:41;;;;;;;8.20;5.00;;;;;;;6.55;60.99;99729.33;117433;1179;24194;-65
2021/12/02 06:52:11;;;;;;;17.20;4.70;;;;;;;6.63;60.91;99739.56;117341;1181;21858;-53
2021/12/02 06:54:40;;;;;;;8.70;4.80;;;;;;;6.70;61.00;99753.98;117283;1185;22618;-66
2021/12/02 06:57:08;;;;;;;9.50;4.30;;;;;;;6.77;60.59;99754.46;117516;1184;21892;-68
2021/12/02 06:59:40;;;;;;;11.00;5.10;;;;;;;6.83;60.91;99747.79;117060;1178;21944;-53
2021/12/02 07:02:09;;;;;;;9.80;5.60;;;;;;;6.90;61.00;99747.57;117263;1185;21841;-64
2021/12/02 07:04:38;;;;;;;8.40;4.50;;;;;;;6.96;60.88;99744.03;117380;1182;23526;-65
2021/12/02 07:07:06;;;;;;;7.90;5.20;;;;;;;6.99;60.79;99740.52;117327;1179;23698;-64
2021/12/02 07:09:35;;;;;;;9.50;4.50;;;;;;;6.97;60.88;99745.77;117252;1185;22625;-54
2021/12/02 07:12:03;;;;;;;18.90;5.60;;;;;;;6.93;60.58;99741.61;117342;1182;24169;-65
2021/12/02 07:14:32;;;;;;;7.20;4.50;;;;;;;6.93;60.77;99734.47;117354;1185;22250;-52
2021/12/02 07:17:01;;;;;;;9.20;5.00;;;;;;;6.95;60.75;99732.00;117434;1185;21860;-65
2021/12/02 07:19:39;;;;;;;9.10;5.00;;;;;;;6.97;60.77;99727.11;117384;1182;22108;-53
2021/12/02 07:22:07;;;;;;;7.20;4.20;;;;;;;6.96;60.58;99726.42;117468;1182;22470;-64
2021/12/02 07:24:35;;;;;;;7.60;5.10;;;;;;;6.98;60.81;99725.53;117371;1180;23637;-65
2021/12/02 07:27:06;;;;;;;;;;;;;;;7.05;60.93;99723.38;117309;1185;22293;-65
2021/12/02 07:29:35;;;;;;;7.00;4.30;;;;;;;7.15;60.94;99726.98;117384;1186;21845;-66
2021/12/02 07:32:03;;;;;;;7.00;4.50;;;;;;;7.23;60.92;99729.16;117331;1185;23580;-65
2021/12/02 07:34:33;;;;;;;7.10;4.40;;;;;;;7.30;60.94;99729.97;117491;1186;21854;-55
2021/12/02 07:37:01;;;;;;;7.70;4.50;;;;;;;7.38;60.79;99730.08;117456;1180;22921;-54
2021/12/02 07:39:30;;;;;;;7.80;4.50;;;;;;;7.48;61.05;99723.52;117290;1183;22926;-65
2021/12/02 07:41:58;;;;;;;7.00;4.60;;;;;;;7.58;61.09;99723.41;117462;1176;22619;-55
2021/12/02 07:44:26;;;;;;;6.30;4.00;;;;;;;7.69;61.23;99728.70;117354;1182;23456;-54
2021/12/02 07:46:56;;;;;;;8.10;4.70;;;;;;;7.84;60.98;99729.24;117330;1182;24315;-66
2021/12/02 07:49:24;;;;;;;9.00;4.10;;;;;;;7.95;61.01;99726.14;117334;1182;24202;-66
2021/12/02 07:51:59;;;;;;;8.20;4.80;;;;;;;8.07;61.35;99723.55;117480;1176;23455;-65
2021/12/02 07:54:31;;;;;;;6.50;4.00;;;;;;;8.24;61.37;99718.27;117452;1182;23474;-66
2021/12/02 07:57:00;;;;;;;7.00;3.70;;;;;;;8.37;61.28;99718.44;117329;1183;21854;-55
2021/12/02 07:59:29;;;;;;;6.20;3.60;;;;;;;8.50;61.20;99714.27;117304;1182;23474;-55
2021/12/02 08:02:00;;;;;;;7.20;3.50;;;;;;;8.58;61.34;99710.65;117227;1185;23635;-55
2021/12/02 08:04:30;;;;;;;9.00;4.60;;;;;;;8.67;61.36;99701.95;117334;1183;22922;-55
2021/12/02 08:06:58;;;;;;;5.30;3.70;;;;;;;8.75;61.14;99702.00;117260;1183;21877;-66
2021/12/02 08:09:27;;;;;;;8.60;5.70;;;;;;;8.83;61.32;99706.79;117447;1186;21843;-73
2021/12/02 08:11:58;;;;;;;6.00;3.60;;;;;;;8.90;61.27;99703.52;117522;1182;21863;-54
2021/12/02 08:14:27;;;;;;;5.40;3.10;;;;;;;9.02;61.13;99699.66;117354;1179;23129;-65
2021/12/02 08:16:56;;;;;;;6.30;3.60;;;;;;;9.16;61.25;99698.17;117403;1185;23475;-65
2021/12/02 08:19:24;;;;;;;6.40;3.60;;;;;;;9.28;61.22;99693.25;117361;1185;21863;-53
2021/12/02 08:21:54;;;;;;;6.70;3.30;;;;;;;9.36;61.13;99679.63;117250;1185;22945;-55
2021/12/02 08:24:23;;;;;;;6.20;3.60;;;;;;;9.44;61.05;99676.50;117384;1185;22561;-65
2021/12/02 08:26:53;;;;;;;6.10;3.10;;;;;;;9.47;61.10;99674.00;117351;1182;22925;-63
2021/12/02 08:29:21;;;;;;;6.70;3.40;;;;;;;9.47;60.87;99669.62;117464;1182;23493;-54
2021/12/02 08:31:50;;;;;;;6.00;3.40;;;;;;;9.49;61.04;99676.59;117476;1184;23176;-55
2021/12/02 08:34:18;;;;;;;6.80;3.70;;;;;;;9.52;61.06;99670.20;117304;1185;21852;-54
2021/12/02 08:36:52;;;;;;;5.80;3.20;;;;;;;9.56;61.21;99668.73;117312;1182;23521;-55
2021/12/02 08:39:26;;;;;;;5.70;3.00;;;;;;;9.62;61.26;99665.48;117364;1183;22925;-64
2021/12/02 08:41:55;;;;;;;7.60;3.70;;;;;;;9.67;61.28;99668.00;117337;1186;21947;-65
2021/12/02 08:44:25;;;;;;;6.40;3.80;;;;;;;9.75;61.18;99662.22;117333;1186;22854;-66
2021/12/02 08:46:54;;;;;;;5.90;3.60;;;;;;;9.85;61.18;99662.21;117410;1186;21918;-55
2021/12/02 08:49:23;;;;;;;7.00;2.90;;;;;;;9.95;61.33;99656.91;117311;1185;22870;-65
2021/12/02 08:51:51;;;;;;;6.40;3.20;;;;;;;10.04;61.29;99645.15;117375;1185;21858;-55
2021/12/02 08:54:20;;;;;;;7.10;3.90;;;;;;;10.15;61.34;99649.83;117370;1182;21860;-62
2021/12/02 08:56:49;;;;;;;9.30;4.30;;;;;;;10.26;61.35;99644.85;117396;1186;23910;-55
2021/12/02 08:59:18;;;;;;;10.40;5.60;;;;;;;10.35;61.22;99642.72;117364;1176;21860;-54
2021/12/02 09:01:48;;;;;;;14.60;8.80;;;;;;;10.45;61.33;99642.70;117351;1182;24166;-55
2021/12/02 09:04:17;;;;;;;9.60;6.30;;;;;;;10.55;61.27;99644.21;117378;1185;21897;-56
2021/12/02 09:06:46;;;;;;;10.00;7.20;;;;;;;10.62;61.35;99635.27;117304;1182;23526;-54
2021/12/02 09:09:14;;;;;;;13.90;10.00;;;;;;;10.73;61.19;99637.27;117406;1183;22782;-55
2021/12/02 09:11:43;;;;;;;12.10;8.60;;;;;;;10.81;61.09;99637.23;117444;1184;23685;-57
2021/12/02 09:14:31;;;;;;;18.10;9.20;;;;;;;10.92;61.24;99636.30;117452;1184;22863;-55
2021/12/02 09:17:00;;;;;;;15.40;7.70;;;;;;;11.03;61.19;99638.12;117382;1176;23664;-66
2021/12/02 09:19:28;;;;;;;11.70;6.30;;;;;;;11.07;61.19;99628.49;117292;1176;22924;-66
2021/12/02 09:21:57;;;;;;;10.00;6.20;;;;;;;11.11;61.20;99622.80;117279;1184;21857;-65
2021/12/02 09:24:25;;;;;;;7.00;3.60;;;;;;;11.17;61.17;99621.77;117318;1185;23481;-55
2021/12/02 09:26:56;;;;;;;12.40;5.70;;;;;;;11.24;61.30;99615.08;117411;1185;23457;-56
2021/12/02 09:29:25;;;;;;;10.60;5.40;;;;;;;11.29;60.94;99603.00;117375;1185;22917;-55
2021/12/02 09:31:54;;;;;;;9.70;4.50;;;;;;;11.38;61.05;99605.04;117332;1179;21926;-54
2021/12/02 09:34:22;;;;;;;8.20;4.80;;;;;;;11.47;61.18;99600.22;117417;1182;23474;-64
2021/12/02 09:36:50;;;;;;;9.60;4.70;;;;;;;11.57;61.24;99601.68;117389;1184;22614;-55
2021/12/02 09:39:18;;;;;;;7.40;4.40;;;;;;;11.71;61.23;99600.76;117297;1185;22941;-66
2021/12/02 09:41:50;;;;;;;9.50;4.50;;;;;;;11.84;61.18;99596.52;117261;1185;23479;-66
2021/12/02 09:44:18;;;;;;;10.20;4.60;;;;;;;11.95;61.19;99593.88;117294;1179;21848;-66
2021/12/02 09:46:47;;;;;;;9.80;5.30;;;;;;;12.01;61.19;99588.80;117267;1185;23228;-55
2021/12/02 09:49:16;;;;;;;10.10;4.70;;;;;;;12.15;60.99;99589.80;117317;1186;23648;-65
2021/12/02 09:57:02;;;;;;;7.90;4.60;;;;;;;13.57;58.43;99572.83;117350;1185;23478;-54
2021/12/02 09:59:47;;;;;;;9.20;4.70;;;;;;;13.72;58.11;99581.77;117339;1185;23452;-55
2021/12/02 10:02:17;;;;;;;15.10;4.90;;;;;;;12.82;60.19;99581.45;117318;1183;22941;-66
2021/12/02 10:04:55;;;;;;;24.70;15.70;;;;;;;12.68;60.65;99587.22;117118;1187;23449;-67
2021/12/02 10:07:36;;;;;;;11.60;7.30;;;;;;;12.71;60.83;99582.20;117337;1185;21858;-67
2021/12/02 10:12:49;;;;;;;26.40;8.70;;;;;;;12.87;61.08;99581.83;117356;1185;23478;-65
2021/12/02 10:15:18;;;;;;;39.80;12.40;;;;;;;12.99;61.05;99574.20;117398;1184;21855;-55
2021/12/02 10:17:51;;;;;;;12.40;5.50;;;;;;;13.12;61.06;99577.06;117308;1182;22625;-55
2021/12/02 10:20:39;;;;;;;16.50;7.20;;;;;;;13.22;60.87;99573.21;117298;1185;21896;-67
2021/12/02 10:23:17;;;;;;;14.10;7.10;;;;;;;13.30;60.79;99567.80;117327;1176;21855;-55
2021/12/02 10:25:55;;;;;;;11.40;5.80;;;;;;;13.34;61.03;99555.16;117209;1185;23573;-67
2021/12/02 10:28:23;;;;;;;9.60;4.40;;;;;;;13.37;61.08;99558.20;117346;1180;23193;-66
2021/12/02 10:30:53;;;;;;;8.60;4.10;;;;;;;13.42;60.91;99560.89;117395;1185;21847;-66
2021/12/02 10:33:37;;;;;;;10.10;4.60;;;;;;;13.45;60.64;99564.46;117328;1182;21860;-66
2021/12/02 10:36:21;;;;;;;13.80;6.50;;;;;;;13.35;60.63;99556.34;117338;1186;22159;-56
2021/12/02 10:38:49;;;;;;;13.30;6.90;;;;;;;13.16;60.24;99565.82;117273;1185;21993;-55
2021/12/02 10:41:24;;;;;;;17.40;8.60;;;;;;;12.95;60.02;99572.04;117303;1185;21958;-54
2021/12/02 10:44:19;;;;;;;11.80;5.40;;;;;;;12.75;60.39;99574.29;117352;1183;23478;-56
2021/12/02 10:47:03;;;;;;;4.80;2.70;;;;;;;12.68;60.51;99571.39;117411;1185;21861;-66
2021/12/02 10:49:49;;;;;;;8.80;2.90;;;;;;;12.76;60.57;99569.34;117444;1185;22731;-65
2021/12/02 10:52:22;;;;;;;7.20;2.80;;;;;;;12.82;60.70;99563.31;117297;1182;23455;-65
2021/12/02 10:54:55;;;;;;;7.20;3.30;;;;;;;12.83;60.55;99561.71;117306;1185;23228;-65
2021/12/02 10:57:25;;;;;;;4.70;2.60;;;;;;;12.82;60.50;99558.59;117391;1185;23474;-54
2021/12/02 10:59:55;;;;;;;9.00;3.70;;;;;;;12.76;60.39;99559.84;117358;1186;22622;-55
2021/12/02 11:02:38;;;;;;;6.50;3.10;;;;;;;12.71;60.50;99566.18;117324;1185;21852;-55
2021/12/02 11:05:19;;;;;;;17.30;3.70;;;;;;;12.72;60.60;99576.69;117355;1182;23433;-55
2021/12/02 11:07:53;;;;;;;8.70;4.20;;;;;;;12.77;60.67;99578.27;117351;1185;22472;-65
2021/12/02 11:10:22;;;;;;;6.70;3.80;;;;;;;12.83;60.57;99575.63;117344;1185;21865;-65
2021/12/02 11:12:53;;;;;;;8.50;4.10;;;;;;;12.84;60.64;99577.17;117399;1182;22935;-56
2021/12/02 11:15:22;;;;;;;28.40;20.50;;;;;;;12.85;60.52;99570.08;117328;1185;23452;-65
2021/12/02 11:17:54;;;;;;;16.40;14.70;;;;;;;12.88;60.56;99572.08;117386;1180;22848;-55
2021/12/02 11:20:24;;;;;;;11.70;9.60;;;;;;;12.86;60.36;99567.74;117361;1186;21857;-64
2021/12/02 11:23:12;;;;;;;33.10;15.80;;;;;;;12.82;60.47;99564.05;117129;1188;23665;-55
2021/12/02 11:26:08;;;;;;;23.10;11.80;;;;;;;12.74;60.36;99558.15;117418;1185;23457;-65
2021/12/02 11:28:39;;;;;;;24.30;11.60;;;;;;;12.70;60.49;99561.25;117304;1184;21856;-56
2021/12/02 11:31:13;;;;;;;15.10;7.00;;;;;;;12.74;60.45;99557.80;117472;1182;23650;-55
2021/12/02 11:33:42;;;;;;;21.20;9.20;;;;;;;12.83;60.44;99559.25;117414;1185;24382;-65
2021/12/02 11:36:22;;;;;;;37.30;15.20;;;;;;;12.89;60.40;99554.98;117364;1185;21858;-65
2021/12/02 11:38:51;;;;;;;15.50;6.90;;;;;;;12.98;60.35;99542.88;117294;1185;22374;-65
2021/12/02 11:41:20;;;;;;;9.70;4.10;;;;;;;13.05;60.47;99531.16;117354;1186;21848;-65
2021/12/02 11:43:53;;;;;;;8.70;2.50;;;;;;;13.07;60.46;99529.32;117420;1182;22945;-65
2021/12/02 11:46:23;;;;;;;5.50;2.50;;;;;;;13.11;60.36;99524.98;117133;1182;22405;-55
2021/12/02 11:48:52;;;;;;;7.30;3.00;;;;;;;13.11;60.16;99525.70;117335;1182;24179;-64
2021/12/02 11:51:21;;;;;;;12.60;4.60;;;;;;;13.06;60.15;99514.25;117364;1185;23451;-55
2021/12/02 11:53:49;;;;;;;22.80;10.20;;;;;;;13.07;60.34;99501.86;117422;1184;23682;-55
2021/12/02 11:56:20;;;;;;;23.20;9.10;;;;;;;13.11;60.29;99496.45;117445;1182;22517;-55
2021/12/02 11:58:49;;;;;;;44.10;16.70;;;;;;;13.11;60.42;99491.70;117290;1186;21860;-64
2021/12/02 12:01:25;;;;;;;37.00;14.10;;;;;;;13.14;60.38;99494.58;118064;1187;21851;-56
2021/12/02 12:03:54;;;;;;;21.20;8.20;;;;;;;13.21;60.55;99495.02;117373;1185;21849;-56
2021/12/02 12:06:28;;;;;;;16.60;7.20;;;;;;;13.25;60.51;99493.10;117462;1176;21855;-63